Stacja Pogody
Warszawa Praga-Północ

Szerokość 52°15'43"N Długość 21°01'22"E Wysokość 110m n.p.m.


88 dzień roku.   Do końca pozostalo 277 dni.   Od wczoraj przybyło 4 min. i 4 sek. dnia.
Wschód Słońca 06:17 Górowanie Słońca 12:40 Zachód Słońca 19:03 baran
Data juliańska 2457842.217 Odległość Słońca 149365910 km Średn. kątowa Słońca 0,320°
Wschód Księżyca 07:15 Zachód Księżyca 20:52 Wiek Księżyca 2 dni Moon
Widoczność Księżyca 3,71% Odległość Księżyca 366767 km Średn. kątowa Księżyca 0,326°
Dzień krótszy od najdłuższego o: 04:01 Długość dnia 12:45 Imieniny Wiktoryna, Helmuta, Eustachego



  Aktualizacja: 29-03-2017 17:12:50
TEMPERATURA
Aktualnie: 10.9°C ↓↓
Temperatura odczuwalna:10.9°C
Punkt rosy6.8°C
WIATR
Średnia prędkość: 11.2km/h ↑
Prędkość w podmuchach:18.4km/h
Przepływ w ciągu doby:222.2km
Kierunek wiatru:180°
CIŚNIENIE
Względne:1014.7hPa
Bezwzględne:1001.5hPa
Trend ciśnienia:stabilne
WILGOTNOŚĆ
Wilgotność względna: 76% ↑
Podstawa chmur1969m
DESZCZ
W ostatniej godzinie: 0.9mm
Dzisiaj:2.1mm
W tym miesiącu:77.4mm
METAR
EPWA 291500Z 27015KT 6000 SHRA SCT020 BKN033CB 10/08 Q1015 NOSIG
Ostrzeżenia burzowe
Prognoza 12-to godzinna (prawdopodobieństwo 75%):   Dobra pogoda prognoza





a  a a